Hobbsville, North Carolina
Current Conditions -  °F | °C
As of 2:35 PM on Sunday 23 Nov 2014 (Local Time) from KEDE Reporting Station
Drizzle Drizzle  
Wind Chill: 60°   Ceiling: 3800
Heat Index: 60°   Visibility: 10mi
Dew Point: 55°   Wind: 0mph
Humidity: 82%   Direction: NA
Pressure: 30.12"   Gusts: NA
Location:  36.35°N, 76.6°W
Report Text: KEDE 231935Z AUTO 00000KT 10SM DZ SCT030 BKN038 BKN044 16/13 A3012 RMK AO2 T01570126
Loading
Personal Weather Stations






























Interactive Weather Map New forecast layout! Learn more

10-Day Weather Forecast

Advertisements
Track Severe Weather on mobile